Time;durP1;ratioP1;P1;durP2;ratioP2;P2;SDS_P1;SDS_P2;PMS_P1;PMS_P2;Temp;Humidity;BMP_temperature;BMP_pressure;BME280_temperature;BME280_humidity;BME280_pressure;Samples;Min_cycle;Max_cycle;Signal;HPM_P1;HPM_P2
2023/06/30 00:00:16;;;;;;;22.67;10.18;;;;;;;18.86;100.00;100949.97;6262442;28;20060;-74
2023/06/30 00:03:17;;;;;;;23.60;10.65;;;;;;;18.82;100.00;100951.19;6257587;28;20049;-73
2023/06/30 00:06:19;;;;;;;19.77;8.95;;;;;;;18.77;100.00;100956.91;6251757;28;20366;-73
2023/06/30 00:09:21;;;;;;;19.05;8.90;;;;;;;18.75;100.00;100957.03;6268398;28;20353;-74
2023/06/30 00:12:24;;;;;;;14.85;7.03;;;;;;;18.85;100.00;100956.25;6262515;28;20063;-74
2023/06/30 00:15:25;;;;;;;24.90;8.57;;;;;;;18.84;100.00;100946.56;6276432;28;20056;-73
2023/06/30 00:18:26;;;;;;;21.13;8.65;;;;;;;18.77;100.00;100953.41;6256666;28;20068;-74
2023/06/30 00:21:28;;;;;;;14.20;6.80;;;;;;;18.72;100.00;100951.13;6251284;28;20053;-73
2023/06/30 00:24:29;;;;;;;21.27;9.88;;;;;;;18.70;100.00;100950.41;6252050;28;20046;-73
2023/06/30 00:27:32;;;;;;;17.67;6.65;;;;;;;18.62;100.00;100950.16;6251608;28;20049;-73
2023/06/30 00:30:33;;;;;;;18.90;6.43;;;;;;;18.59;100.00;100948.63;6251875;28;20052;-73
2023/06/30 00:33:34;;;;;;;14.60;6.28;;;;;;;18.64;100.00;100953.56;6250902;28;20056;-73
2023/06/30 00:36:36;;;;;;;11.85;4.70;;;;;;;18.57;100.00;100949.72;6272565;28;20056;-73
2023/06/30 00:39:37;;;;;;;9.40;4.47;;;;;;;18.48;100.00;100944.19;6276055;28;20349;-73
2023/06/30 00:42:40;;;;;;;11.88;4.15;;;;;;;18.42;100.00;100950.03;6275193;28;20085;-73
2023/06/30 00:45:41;;;;;;;6.88;3.65;;;;;;;18.32;100.00;100948.25;6276082;28;20045;-73
2023/06/30 00:48:43;;;;;;;8.43;3.90;;;;;;;18.25;100.00;100953.22;6275637;28;20098;-73
2023/06/30 00:51:44;;;;;;;5.28;3.40;;;;;;;18.21;100.00;100949.13;6275359;28;20045;-73
2023/06/30 00:54:46;;;;;;;8.98;3.42;;;;;;;18.20;100.00;100963.41;6275644;28;20064;-74
2023/06/30 00:57:48;;;;;;;4.70;2.55;;;;;;;18.22;100.00;100951.69;6274532;28;20041;-73
2023/06/30 01:00:54;;;;;;;3.60;2.38;;;;;;;18.18;100.00;100944.91;6274996;28;20041;-74
2023/06/30 01:04:02;;;;;;;4.15;2.65;;;;;;;18.11;100.00;100940.22;6275661;28;20052;-73
2023/06/30 01:07:13;;;;;;;5.07;2.70;;;;;;;18.10;100.00;100938.53;6275322;28;20098;-74
2023/06/30 01:10:18;;;;;;;6.10;3.28;;;;;;;18.19;100.00;100941.28;6275698;28;20049;-73
2023/06/30 01:13:22;;;;;;;5.65;2.70;;;;;;;18.11;100.00;100934.91;6274557;28;20327;-73
2023/06/30 01:16:24;;;;;;;8.82;3.17;;;;;;;18.07;100.00;100949.41;6275464;28;20396;-74
2023/06/30 01:19:34;;;;;;;6.68;3.42;;;;;;;18.05;100.00;100948.72;6275419;28;20041;-73
2023/06/30 01:22:42;;;;;;;6.18;3.20;;;;;;;18.05;100.00;100948.72;6266308;28;20049;-74
2023/06/30 01:25:45;;;;;;;5.78;2.90;;;;;;;18.14;100.00;100951.47;6258406;28;20045;-73
2023/06/30 01:28:50;;;;;;;4.55;2.40;;;;;;;18.03;100.00;100947.97;6272723;28;20418;-74
2023/06/30 01:31:52;;;;;;;3.90;2.67;;;;;;;17.97;100.00;100941.34;6274452;28;20449;-73
2023/06/30 01:34:53;;;;;;;6.30;2.83;;;;;;;17.97;100.00;100944.00;6275036;28;20044;-74
2023/06/30 01:37:56;;;;;;;4.82;2.78;;;;;;;17.97;100.00;100944.00;6275136;28;20041;-74
2023/06/30 01:40:59;;;;;;;4.32;2.40;;;;;;;17.90;100.00;100937.50;6269286;28;20065;-74
2023/06/30 01:44:03;;;;;;;5.57;2.45;;;;;;;17.86;100.00;100941.38;6258348;28;20059;-74
2023/06/30 01:47:06;;;;;;;8.20;3.05;;;;;;;17.82;100.00;100937.28;6274357;28;20045;-74
2023/06/30 01:50:09;;;;;;;3.63;1.50;;;;;;;17.70;100.00;100929.28;6250032;28;20057;-74
2023/06/30 01:53:11;;;;;;;5.22;1.92;;;;;;;17.62;100.00;100933.50;6258687;28;20057;-73
2023/06/30 01:56:12;;;;;;;4.85;1.35;;;;;;;17.56;100.00;100940.16;6274386;28;20350;-74
2023/06/30 01:59:15;;;;;;;1.98;1.42;;;;;;;17.56;100.00;100937.50;6274581;28;20049;-73
2023/06/30 02:02:16;;;;;;;4.22;1.63;;;;;;;17.57;100.00;100935.69;6273992;28;20060;-74
2023/06/30 02:05:18;;;;;;;1.85;1.20;;;;;;;17.59;100.00;100937.28;6274647;28;20052;-73
2023/06/30 02:08:19;;;;;;;1.42;1.10;;;;;;;17.61;100.00;100932.69;6273277;28;20056;-74
2023/06/30 02:11:21;;;;;;;2.75;1.02;;;;;;;17.58;100.00;100938.25;6278406;28;20045;-73
2023/06/30 02:14:24;;;;;;;2.72;1.20;;;;;;;17.56;100.00;100936.69;6279328;28;20441;-73
2023/06/30 02:17:28;;;;;;;2.35;1.30;;;;;;;17.52;100.00;100943.19;6279400;28;20045;-74
2023/06/30 02:20:30;;;;;;;4.75;1.48;;;;;;;17.58;100.00;100940.06;6279207;28;20049;-74
2023/06/30 02:23:31;;;;;;;1.88;1.00;;;;;;;17.53;100.00;100947.53;6274765;28;20339;-74
2023/06/30 02:26:32;;;;;;;1.95;1.60;;;;;;;17.48;100.00;100940.78;6254230;28;20357;-73
2023/06/30 02:29:35;;;;;;;5.63;1.20;;;;;;;17.52;100.00;100941.38;6254064;28;20045;-73
2023/06/30 02:32:38;;;;;;;1.33;1.10;;;;;;;17.53;100.00;100939.56;6253972;28;20052;-73
2023/06/30 02:35:39;;;;;;;3.17;1.30;;;;;;;17.57;100.00;100941.84;6254443;28;20084;-73
2023/06/30 02:38:40;;;;;;;4.40;2.05;;;;;;;17.60;100.00;100941.63;6253897;28;20041;-74
2023/06/30 02:41:42;;;;;;;8.65;2.05;;;;;;;17.45;100.00;100938.38;6241386;28;20045;-74
2023/06/30 02:44:44;;;;;;;1.30;1.20;;;;;;;17.43;100.00;100932.31;6253996;28;20121;-74
2023/06/30 02:47:45;;;;;;;3.85;1.73;;;;;;;17.48;100.00;100932.81;6253119;28;20045;-73
2023/06/30 02:50:47;;;;;;;2.03;1.38;;;;;;;17.48;100.00;100948.75;6253549;28;20041;-73
2023/06/30 02:53:48;;;;;;;2.03;1.08;;;;;;;17.48;100.00;100955.88;6260115;28;20045;-73
2023/06/30 02:56:49;;;;;;;1.90;1.15;;;;;;;17.39;100.00;100945.97;6255708;28;20057;-74
2023/06/30 02:59:52;;;;;;;2.13;1.30;;;;;;;17.30;100.00;100950.19;6253750;28;20056;-73
2023/06/30 03:02:53;;;;;;;4.10;1.70;;;;;;;17.28;100.00;100946.81;6253274;28;20053;-74
2023/06/30 03:05:55;;;;;;;2.95;1.27;;;;;;;17.33;100.00;100943.81;6253474;28;20041;-73
2023/06/30 03:08:56;;;;;;;2.78;1.38;;;;;;;17.28;100.00;100938.00;6252584;28;20052;-74
2023/06/30 03:11:57;;;;;;;3.15;1.33;;;;;;;17.26;100.00;100946.13;6252899;28;20064;-73
2023/06/30 03:15:00;;;;;;;2.35;1.30;;;;;;;17.24;100.00;100940.91;6253419;28;20056;-74
2023/06/30 03:18:01;;;;;;;2.42;1.33;;;;;;;17.28;100.00;100952.13;6253467;28;20070;-74
2023/06/30 03:21:03;;;;;;;4.57;1.83;;;;;;;17.26;100.00;100954.09;6251625;28;20052;-73
2023/06/30 03:24:04;;;;;;;2.05;1.30;;;;;;;17.25;100.00;100953.22;6253676;28;20053;-74
2023/06/30 03:27:06;;;;;;;3.17;1.50;;;;;;;17.21;100.00;100949.13;6254375;28;20462;-74
2023/06/30 03:30:10;;;;;;;1.83;1.30;;;;;;;17.28;100.00;100949.47;6256903;28;20052;-74
2023/06/30 03:33:11;;;;;;;1.50;1.40;;;;;;;17.19;100.00;100950.19;6259275;28;20056;-73
2023/06/30 03:36:12;;;;;;;8.73;2.40;;;;;;;17.09;100.00;100947.41;6253017;28;20434;-74
2023/06/30 03:39:14;;;;;;;5.38;2.60;;;;;;;17.06;100.00;100950.31;6249189;28;20041;-77
2023/06/30 03:42:15;;;;;;;6.18;2.25;;;;;;;16.93;100.00;100942.44;6231144;28;20045;-74
2023/06/30 03:45:18;;;;;;;8.00;2.70;;;;;;;16.93;100.00;100944.25;6230228;28;20053;-75
2023/06/30 03:48:20;;;;;;;3.25;2.22;;;;;;;16.91;100.00;100957.66;6241455;28;20041;-73
2023/06/30 03:51:21;;;;;;;5.85;2.40;;;;;;;16.96;100.00;100941.34;6255491;28;20052;-74
2023/06/30 03:54:23;;;;;;;3.90;2.25;;;;;;;17.13;100.00;100946.22;6261784;28;20054;-73
2023/06/30 03:57:24;;;;;;;5.50;2.47;;;;;;;17.12;100.00;100947.19;6264889;28;20331;-74
2023/06/30 04:00:28;;;;;;;3.50;2.50;;;;;;;16.99;100.00;100949.94;6252331;28;20056;-74
2023/06/30 04:03:30;;;;;;;4.05;2.70;;;;;;;16.96;100.00;100944.00;6253449;28;20476;-73
2023/06/30 04:06:33;;;;;;;3.95;2.67;;;;;;;16.92;100.00;100940.75;6261096;28;20049;-74
2023/06/30 04:09:34;;;;;;;7.50;2.78;;;;;;;16.92;100.00;100934.59;6235951;28;20127;-74
2023/06/30 04:12:36;;;;;;;6.55;2.95;;;;;;;16.94;100.00;100944.16;6229903;28;20050;-73
2023/06/30 04:15:38;;;;;;;6.32;2.88;;;;;;;16.84;100.00;100940.47;6232926;28;20048;-73
2023/06/30 04:18:40;;;;;;;6.90;2.72;;;;;;;16.88;100.00;100946.41;6231207;28;20040;-74
2023/06/30 04:21:41;;;;;;;5.72;3.47;;;;;;;16.89;100.00;100948.94;6248644;28;20049;-74
2023/06/30 04:24:43;;;;;;;5.05;2.95;;;;;;;16.81;100.00;100953.16;6242436;28;20045;-74
2023/06/30 04:27:44;;;;;;;9.55;3.15;;;;;;;16.76;100.00;100961.47;6236788;28;20041;-74
2023/06/30 04:30:47;;;;;;;9.90;4.45;;;;;;;16.73;100.00;100959.03;6247310;28;20590;-74
2023/06/30 04:33:49;;;;;;;5.13;3.80;;;;;;;16.70;100.00;100959.22;6233650;28;20045;-73
2023/06/30 04:36:50;;;;;;;5.35;3.58;;;;;;;16.73;100.00;100965.19;6229459;28;20120;-73
2023/06/30 04:39:52;;;;;;;8.73;4.13;;;;;;;16.79;100.00;100965.69;6238543;28;20072;-73
2023/06/30 04:42:53;;;;;;;8.85;4.20;;;;;;;16.80;100.00;100972.69;6252160;28;20041;-73
2023/06/30 04:45:57;;;;;;;7.72;4.40;;;;;;;16.81;100.00;100966.44;6251324;28;20191;-73
2023/06/30 04:49:00;;;;;;;7.53;4.78;;;;;;;16.77;100.00;100960.50;6267017;28;20126;-74
2023/06/30 04:52:01;;;;;;;9.93;4.53;;;;;;;16.72;100.00;100957.34;6244792;28;20049;-75
2023/06/30 04:55:03;;;;;;;8.40;5.40;;;;;;;16.63;100.00;100960.69;6250992;28;20354;-73
2023/06/30 04:58:04;;;;;;;8.52;4.90;;;;;;;16.67;100.00;100956.84;6250381;28;20053;-74
2023/06/30 05:01:07;;;;;;;8.40;5.22;;;;;;;16.68;100.00;100961.16;6260135;28;20064;-74
2023/06/30 05:04:08;;;;;;;7.78;4.38;;;;;;;16.66;100.00;100958.63;6267076;28;20064;-74
2023/06/30 05:07:10;;;;;;;7.65;4.50;;;;;;;16.73;100.00;100956.38;6275409;28;20128;-74
2023/06/30 05:10:11;;;;;;;6.90;4.40;;;;;;;16.74;100.00;100948.31;6263180;28;20358;-74
2023/06/30 05:13:12;;;;;;;11.77;6.15;;;;;;;16.69;100.00;100957.56;6253616;28;20056;-78
2023/06/30 05:16:15;;;;;;;14.52;6.10;;;;;;;16.70;100.00;100960.06;6255657;28;20048;-74
2023/06/30 05:19:16;;;;;;;10.50;5.32;;;;;;;16.75;100.00;100962.41;6254151;28;20354;-75
2023/06/30 05:22:18;;;;;;;13.68;6.00;;;;;;;16.74;100.00;100955.41;6250053;28;20049;-74
2023/06/30 05:25:19;;;;;;;9.32;5.45;;;;;;;16.63;100.00;100958.03;6254580;28;20049;-74
2023/06/30 05:28:21;;;;;;;11.02;6.78;;;;;;;16.64;100.00;100960.56;6252261;28;20076;-74
2023/06/30 05:31:23;;;;;;;20.95;6.30;;;;;;;16.77;100.00;100967.63;6266277;28;20060;-74
2023/06/30 05:34:25;;;;;;;11.27;6.15;;;;;;;16.82;100.00;100970.78;6253243;28;20048;-73
2023/06/30 05:37:26;;;;;;;11.93;6.47;;;;;;;16.73;100.00;100954.56;6275302;28;20045;-74
2023/06/30 05:40:27;;;;;;;12.43;6.45;;;;;;;16.67;100.00;100955.03;6275054;28;20052;-76
2023/06/30 05:43:29;;;;;;;13.07;7.10;;;;;;;16.67;100.00;100957.69;6258998;28;20449;-74
2023/06/30 05:46:31;;;;;;;13.70;7.40;;;;;;;16.69;100.00;100955.75;6250837;28;20433;-74
2023/06/30 05:49:33;;;;;;;15.07;6.70;;;;;;;16.72;100.00;100954.72;6250267;28;20049;-74
2023/06/30 05:52:34;;;;;;;10.32;5.70;;;;;;;16.75;100.00;100949.16;6249834;28;20057;-74
2023/06/30 05:55:35;;;;;;;13.48;6.28;;;;;;;16.74;100.00;100952.78;6262557;28;20354;-74
2023/06/30 05:58:39;;;;;;;12.27;7.05;;;;;;;16.78;100.00;100948.91;6253752;28;20045;-74
2023/06/30 06:01:42;;;;;;;12.25;7.13;;;;;;;16.88;100.00;100957.88;6249217;28;20467;-74
2023/06/30 06:04:43;;;;;;;14.65;7.20;;;;;;;16.73;100.00;100951.94;6249828;28;20441;-73
2023/06/30 06:07:44;;;;;;;11.88;6.20;;;;;;;16.75;100.00;100951.78;6263705;28;20049;-74
2023/06/30 06:10:48;;;;;;;19.45;7.05;;;;;;;16.76;100.00;100958.81;6260146;28;20042;-74
2023/06/30 06:13:49;;;;;;;11.60;7.30;;;;;;;16.76;100.00;100955.28;6272469;28;20045;-74
2023/06/30 06:16:52;;;;;;;13.75;7.20;;;;;;;16.84;100.00;100960.88;6274837;28;20040;-74
2023/06/30 06:19:53;;;;;;;11.98;7.25;;;;;;;16.68;100.00;100967.31;6247778;28;20346;-75
2023/06/30 06:22:55;;;;;;;16.48;6.75;;;;;;;16.76;100.00;100965.91;6261466;28;20048;-74
2023/06/30 06:25:56;;;;;;;10.30;6.20;;;;;;;16.74;100.00;100960.72;6265661;28;20068;-75
2023/06/30 06:28:57;;;;;;;14.70;6.57;;;;;;;16.76;100.00;100968.56;6250841;28;20446;-74
2023/06/30 06:32:00;;;;;;;13.07;6.70;;;;;;;16.84;100.00;100974.16;6249193;28;20123;-74
2023/06/30 06:35:02;;;;;;;10.40;6.85;;;;;;;16.78;100.00;100969.31;6249526;28;20057;-75
2023/06/30 06:38:03;;;;;;;11.75;7.57;;;;;;;16.89;100.00;100972.81;6266283;28;20049;-77
2023/06/30 06:41:04;;;;;;;13.77;7.60;;;;;;;16.90;100.00;100979.84;6273751;28;20353;-75
2023/06/30 06:44:06;;;;;;;13.38;6.88;;;;;;;16.97;100.00;100972.25;6274346;28;20061;-74
2023/06/30 06:47:44;;;;;;;11.07;5.82;;;;;;;17.09;100.00;100968.66;6261976;28;20057;-74
2023/06/30 06:50:48;;;;;;;11.27;6.53;;;;;;;17.09;100.00;100976.63;6256087;28;20048;-75
2023/06/30 06:53:52;;;;;;;8.02;5.45;;;;;;;17.09;100.00;100971.31;6259760;28;20049;-74
2023/06/30 06:56:54;;;;;;;10.63;5.55;;;;;;;17.08;100.00;100977.59;6261975;28;20045;-74
2023/06/30 06:59:58;;;;;;;13.32;4.88;;;;;;;17.05;100.00;100964.56;6262018;28;20041;-74
2023/06/30 07:02:59;;;;;;;10.65;5.53;;;;;;;17.13;100.00;100972.78;6275775;28;20053;-74
2023/06/30 07:06:02;;;;;;;9.05;5.50;;;;;;;17.03;100.00;100978.91;6262181;28;20049;-75
2023/06/30 07:09:04;;;;;;;7.70;5.47;;;;;;;17.00;100.00;100985.31;6261879;28;20053;-74
2023/06/30 07:12:06;;;;;;;11.30;5.47;;;;;;;17.04;100.00;100986.75;6245120;28;20136;-74
2023/06/30 07:15:08;;;;;;;11.70;5.38;;;;;;;17.13;100.00;100987.88;6278226;28;20053;-74
2023/06/30 07:18:09;;;;;;;6.93;4.63;;;;;;;17.15;100.00;100983.28;6261667;28;20128;-74
2023/06/30 07:21:12;;;;;;;15.90;6.07;;;;;;;17.17;100.00;100989.31;6260786;28;20328;-73
2023/06/30 07:24:14;;;;;;;9.70;5.18;;;;;;;17.16;100.00;100990.25;6277909;28;20060;-74
2023/06/30 07:27:15;;;;;;;7.63;4.72;;;;;;;17.16;100.00;100987.59;6278089;28;20442;-74
2023/06/30 07:30:17;;;;;;;11.13;5.78;;;;;;;17.21;100.00;100993.41;6277717;28;20346;-74
2023/06/30 07:33:18;;;;;;;14.63;5.88;;;;;;;17.03;100.00;100990.34;6276981;28;20052;-74
2023/06/30 07:36:21;;;;;;;6.45;4.10;;;;;;;17.07;100.00;100981.19;6259058;28;20053;-73
2023/06/30 07:39:22;;;;;;;11.05;5.95;;;;;;;17.11;100.00;100977.34;6252735;28;20041;-74
2023/06/30 07:42:24;;;;;;;10.88;6.18;;;;;;;17.15;100.00;100986.75;6252299;28;20056;-74
2023/06/30 07:45:25;;;;;;;10.20;4.28;;;;;;;17.20;100.00;100992.56;6252575;28;20045;-73
2023/06/30 07:48:26;;;;;;;5.95;4.03;;;;;;;17.22;100.00;100984.50;6252826;28;20056;-74
2023/06/30 07:51:29;;;;;;;9.38;4.53;;;;;;;17.21;100.00;100994.28;6251970;28;20052;-74
2023/06/30 07:54:30;;;;;;;10.35;4.97;;;;;;;17.17;100.00;100992.81;6264818;28;20174;-75
2023/06/30 07:57:32;;;;;;;9.75;5.43;;;;;;;17.28;100.00;100997.28;6256972;28;20049;-74
2023/06/30 08:00:33;;;;;;;8.52;4.88;;;;;;;17.40;100.00;100999.00;6273164;28;20041;-74
2023/06/30 08:03:34;;;;;;;8.85;5.03;;;;;;;17.37;100.00;100993.91;6276476;28;20045;-74
2023/06/30 08:06:37;;;;;;;7.78;5.28;;;;;;;17.44;100.00;100991.63;6276338;28;20052;-74
2023/06/30 08:09:39;;;;;;;6.78;5.10;;;;;;;17.41;100.00;100995.38;6277202;28;20048;-74
2023/06/30 08:12:40;;;;;;;6.38;4.10;;;;;;;17.42;100.00;101001.53;6276271;28;20130;-74
2023/06/30 08:15:41;;;;;;;9.35;4.88;;;;;;;17.43;100.00;100998.75;6276782;28;20040;-74
2023/06/30 08:18:42;;;;;;;6.55;4.25;;;;;;;17.47;100.00;100997.53;6263061;28;20442;-74
2023/06/30 08:21:45;;;;;;;7.72;4.10;;;;;;;17.56;100.00;101000.44;6251476;28;20048;-74
2023/06/30 08:24:46;;;;;;;4.78;4.07;;;;;;;17.60;100.00;101004.56;6251737;28;20049;-74
2023/06/30 08:27:48;;;;;;;4.63;3.33;;;;;;;17.69;100.00;100999.38;6252130;28;20049;-74
2023/06/30 08:30:49;;;;;;;4.85;3.88;;;;;;;17.80;100.00;101001.19;6251005;28;20342;-74
2023/06/30 08:33:50;;;;;;;8.95;4.50;;;;;;;17.98;100.00;100996.22;6251544;28;20049;-74
2023/06/30 08:36:53;;;;;;;6.60;3.90;;;;;;;17.88;100.00;100992.63;6274637;28;20048;-73
2023/06/30 08:39:55;;;;;;;8.38;3.47;;;;;;;17.84;100.00;100999.97;6276239;28;20552;-74
2023/06/30 08:42:59;;;;;;;7.38;4.05;;;;;;;17.86;100.00;101000.72;6251820;28;20404;-74
2023/06/30 08:46:02;;;;;;;7.90;2.72;;;;;;;17.83;100.00;101002.78;6251253;28;20049;-73
2023/06/30 08:49:04;;;;;;;2.80;1.73;;;;;;;17.79;100.00;100994.19;6251306;28;20056;-73
2023/06/30 08:52:08;;;;;;;4.20;1.80;;;;;;;17.78;100.00;100996.97;6250681;28;20052;-74
2023/06/30 08:55:11;;;;;;;4.40;2.13;;;;;;;17.85;100.00;100993.72;6267657;28;20052;-73
2023/06/30 08:58:12;;;;;;;4.00;2.88;;;;;;;17.91;100.00;100993.22;6275765;28;20052;-74
2023/06/30 09:01:14;;;;;;;4.25;2.03;;;;;;;17.92;100.00;100986.09;6275197;28;20052;-74
2023/06/30 09:04:16;;;;;;;3.45;1.98;;;;;;;17.92;100.00;100992.25;6275642;28;20132;-74
2023/06/30 09:07:24;;;;;;;2.47;1.80;;;;;;;17.91;100.00;100997.69;6275376;28;20370;-74
2023/06/30 09:10:27;;;;;;;4.35;1.90;;;;;;;17.92;100.00;100999.38;6275513;28;20144;-73
2023/06/30 09:13:29;;;;;;;3.70;2.33;;;;;;;17.85;100.00;100996.38;6271781;28;20461;-74
2023/06/30 09:16:31;;;;;;;9.18;2.50;;;;;;;17.74;100.00;101001.69;6248660;28;20045;-73
2023/06/30 09:19:32;;;;;;;6.82;2.50;;;;;;;17.68;100.00;100992.38;6255932;28;20040;-74
2023/06/30 09:22:37;;;;;;;5.57;2.67;;;;;;;17.67;100.00;100993.34;6254126;28;20041;-74
2023/06/30 09:25:40;;;;;;;2.88;2.30;;;;;;;17.65;100.00;100991.75;6250325;28;20279;-74
2023/06/30 09:28:43;;;;;;;4.70;2.45;;;;;;;17.70;100.00;100985.09;6254387;28;20133;-74
2023/06/30 09:31:44;;;;;;;6.97;2.55;;;;;;;17.69;100.00;100993.19;6259029;28;20559;-74
2023/06/30 09:34:45;;;;;;;3.53;2.60;;;;;;;17.67;100.00;101001.31;6256569;28;20334;-74
2023/06/30 09:37:48;;;;;;;2.53;2.30;;;;;;;17.75;100.00;100990.91;6264414;28;20052;-74
2023/06/30 09:40:51;;;;;;;4.53;2.75;;;;;;;17.83;100.00;100984.16;6274214;28;20533;-74
2023/06/30 09:43:57;;;;;;;3.83;2.50;;;;;;;17.88;100.00;100997.94;6274896;28;20071;-74
2023/06/30 09:46:58;;;;;;;6.53;2.30;;;;;;;18.03;100.00;100996.69;6267822;28;20056;-74
2023/06/30 09:49:59;;;;;;;4.05;2.50;;;;;;;18.08;100.00;100999.84;6249482;28;20053;-74
2023/06/30 09:53:02;;;;;;;3.80;2.03;;;;;;;18.10;100.00;101000.56;6252981;28;20057;-74
2023/06/30 09:56:04;;;;;;;3.42;2.25;;;;;;;18.12;100.00;100990.66;6249774;28;20061;-74
2023/06/30 09:59:06;;;;;;;4.85;2.50;;;;;;;18.11;100.00;100988.94;6242410;28;20072;-74
2023/06/30 10:02:10;;;;;;;3.85;2.55;;;;;;;18.22;100.00;100990.75;6243307;28;20132;-74
2023/06/30 10:05:11;;;;;;;3.53;1.92;;;;;;;18.32;100.00;100983.69;6266237;28;20049;-73
2023/06/30 10:08:15;;;;;;;3.03;2.45;;;;;;;18.40;100.00;100983.91;6260334;28;20053;-73
2023/06/30 10:11:16;;;;;;;2.78;2.22;;;;;;;18.46;100.00;100983.41;6273819;28;20049;-73
2023/06/30 10:14:20;;;;;;;3.95;3.03;;;;;;;18.49;100.00;100983.16;6271220;28;20563;-72
2023/06/30 10:17:22;;;;;;;2.75;1.75;;;;;;;18.54;100.00;100973.94;6247962;28;20056;-72
2023/06/30 10:20:23;;;;;;;5.00;1.95;;;;;;;18.50;100.00;100976.84;6251879;28;20053;-72
2023/06/30 10:23:27;;;;;;;5.25;2.28;;;;;;;18.48;100.00;100983.25;6257781;28;20057;-72
2023/06/30 10:26:29;;;;;;;2.00;1.80;;;;;;;18.47;100.00;100977.09;6249131;28;20049;-73
2023/06/30 10:29:31;;;;;;;2.10;1.50;;;;;;;18.56;100.00;100978.16;6258615;28;20045;-72
2023/06/30 10:32:32;;;;;;;4.45;1.20;;;;;;;18.62;100.00;100969.69;6269167;28;20046;-72
2023/06/30 10:35:35;;;;;;;2.30;1.63;;;;;;;18.81;100.00;100969.00;6260555;28;20044;-74
2023/06/30 10:38:38;;;;;;;2.42;1.30;;;;;;;18.86;100.00;100969.44;6270687;28;20437;-73
2023/06/30 10:41:46;;;;;;;4.43;0.90;;;;;;;18.84;100.00;100962.56;6278372;28;20048;-73
2023/06/30 10:44:48;;;;;;;2.35;1.05;;;;;;;18.87;100.00;100967.63;6278664;28;20048;-73
2023/06/30 10:47:51;;;;;;;2.05;1.08;;;;;;;18.99;100.00;100962.09;6276191;28;20057;-73
2023/06/30 10:50:54;;;;;;;2.22;1.02;;;;;;;19.10;100.00;100957.69;6259192;28;20486;-73
2023/06/30 10:53:58;;;;;;;1.42;0.90;;;;;;;19.16;100.00;100957.13;6262206;28;20049;-73
2023/06/30 10:57:09;;;;;;;1.83;0.73;;;;;;;19.44;100.00;100952.91;6253903;28;20057;-73
2023/06/30 11:00:12;;;;;;;1.58;1.00;;;;;;;19.55;100.00;100952.00;6248753;28;20061;-76
2023/06/30 11:03:13;;;;;;;2.05;0.80;;;;;;;19.61;100.00;100946.16;6261451;28;20049;-72
2023/06/30 11:06:19;;;;;;;2.03;0.90;;;;;;;19.57;100.00;100950.03;6253750;28;20075;-72
2023/06/30 11:09:22;;;;;;;2.45;0.90;;;;;;;19.43;100.00;100960.06;6252007;28;20053;-72
2023/06/30 11:12:24;;;;;;;0.70;0.70;;;;;;;19.34;100.00;100950.22;6255503;28;20048;-72
2023/06/30 11:15:28;;;;;;;0.63;0.60;;;;;;;19.34;100.00;100950.22;6253372;28;20059;-73
2023/06/30 11:18:32;;;;;;;3.20;0.82;;;;;;;19.64;100.00;100945.88;6249316;28;20053;-73
2023/06/30 11:21:33;;;;;;;1.90;0.77;;;;;;;19.75;100.00;100935.09;6257312;28;20044;-73
2023/06/30 11:24:36;;;;;;;1.95;0.90;;;;;;;19.93;100.00;100933.44;6252875;28;20056;-72
2023/06/30 11:27:39;;;;;;;1.55;0.70;;;;;;;19.99;100.00;100932.09;6251104;28;20064;-73
2023/06/30 11:30:42;;;;;;;4.28;1.10;;;;;;;20.08;100.00;100928.59;6252882;28;20053;-72
2023/06/30 11:33:44;;;;;;;2.33;0.90;;;;;;;20.27;100.00;100917.91;6247486;28;20060;-72
2023/06/30 11:36:48;;;;;;;2.65;0.98;;;;;;;20.51;100.00;100901.47;6254874;28;20048;-72
2023/06/30 11:39:56;;;;;;;2.10;0.65;;;;;;;20.47;99.98;100910.75;6253962;28;20112;-73
2023/06/30 11:42:57;;;;;;;1.02;0.70;;;;;;;20.23;99.93;100913.84;6254300;28;20056;-73
2023/06/30 11:46:00;;;;;;;4.00;0.80;;;;;;;20.16;100.00;100914.53;6252827;28;20053;-73
2023/06/30 11:49:01;;;;;;;1.02;0.63;;;;;;;20.09;99.48;100908.91;6249947;28;20461;-72
2023/06/30 11:52:04;;;;;;;3.00;0.70;;;;;;;20.31;100.00;100909.63;6260744;28;20338;-72
2023/06/30 11:55:08;;;;;;;1.67;0.65;;;;;;;20.62;91.39;100896.97;6255440;28;20052;-72
2023/06/30 11:58:09;;;;;;;1.23;0.70;;;;;;;20.59;90.13;100905.28;6252641;28;20084;-73
2023/06/30 12:01:11;;;;;;;3.08;0.70;;;;;;;20.83;96.73;100902.13;6246525;28;20041;-73
2023/06/30 12:04:34;;;;;;;1.25;0.65;;;;;;;20.80;87.22;100897.91;6244061;28;20366;-71
2023/06/30 12:07:35;;;;;;;0.73;0.50;;;;;;;20.50;88.04;100899.81;6259516;28;20045;-72
2023/06/30 12:10:39;;;;;;;5.20;1.00;;;;;;;20.45;90.23;100899.34;6266433;28;20040;-77
2023/06/30 12:13:41;;;;;;;1.83;0.75;;;;;;;20.59;92.14;100891.94;6256937;28;20045;-71
2023/06/30 12:16:43;;;;;;;3.13;0.70;;;;;;;21.03;89.44;100893.09;6243451;28;20107;-71
2023/06/30 12:19:45;;;;;;;0.80;0.80;;;;;;;21.51;85.42;100892.06;6249340;28;20045;-73
2023/06/30 12:22:51;;;;;;;2.58;0.88;;;;;;;21.88;85.82;100883.91;6262380;28;20045;-69
2023/06/30 12:25:54;;;;;;;2.10;0.63;;;;;;;22.31;79.69;100893.06;6274920;28;20047;-69
2023/06/30 12:29:02;;;;;;;3.00;0.60;;;;;;;22.36;75.15;100888.09;6276371;28;20339;-69
2023/06/30 12:32:13;;;;;;;2.60;0.70;;;;;;;22.47;78.09;100879.78;6262458;28;20440;-69
2023/06/30 12:35:15;;;;;;;1.73;0.73;;;;;;;22.64;78.42;100875.41;6244651;28;20053;-70
2023/06/30 12:38:18;;;;;;;1.42;0.77;;;;;;;22.81;66.69;100868.31;6251565;28;20354;-70
2023/06/30 12:41:20;;;;;;;2.28;0.70;;;;;;;22.94;63.10;100870.63;6250945;28;20136;-70
2023/06/30 12:44:22;;;;;;;2.88;0.80;;;;;;;22.89;64.33;100870.19;6251208;28;20049;-70
2023/06/30 12:47:24;;;;;;;0.50;0.50;;;;;;;22.84;64.35;100875.19;6251347;28;20060;-72
2023/06/30 12:50:25;;;;;;;0.77;0.70;;;;;;;22.75;70.20;100864.41;6251355;28;20041;-71
2023/06/30 12:53:26;;;;;;;1.83;0.55;;;;;;;22.75;58.59;100867.09;6250638;28;20041;-71
2023/06/30 12:56:30;;;;;;;3.08;1.20;;;;;;;22.84;59.33;100869.81;6251229;28;20052;-70
2023/06/30 12:59:32;;;;;;;1.77;0.70;;;;;;;22.89;60.18;100870.19;6251217;28;20095;-71
2023/06/30 13:02:33;;;;;;;3.65;0.70;;;;;;;22.94;63.42;100868.78;6250309;28;20120;-71
2023/06/30 13:05:35;;;;;;;2.30;0.85;;;;;;;23.02;61.88;100868.78;6250899;28;20041;-71
2023/06/30 13:08:36;;;;;;;0.77;0.60;;;;;;;22.55;59.86;100873.66;6250808;28;20042;-71
2023/06/30 13:11:39;;;;;;;1.05;0.88;;;;;;;22.54;62.03;100864.78;6250179;28;20346;-70
2023/06/30 13:14:41;;;;;;;0.60;0.60;;;;;;;22.50;58.89;100863.41;6250738;28;20056;-71
2023/06/30 13:17:43;;;;;;;1.00;0.75;;;;;;;22.35;59.96;100864.16;6250794;28;20042;-71
2023/06/30 13:20:44;;;;;;;2.15;0.60;;;;;;;22.17;59.44;100856.13;6250329;28;20053;-71
2023/06/30 13:23:46;;;;;;;2.25;0.57;;;;;;;22.27;62.65;100863.06;6250769;28;20056;-71
2023/06/30 13:26:48;;;;;;;1.30;0.60;;;;;;;22.64;63.11;100855.81;6250438;28;20053;-71
2023/06/30 13:29:51;;;;;;;2.90;0.90;;;;;;;22.48;60.00;100851.16;6259098;28;20041;-76
2023/06/30 13:32:52;;;;;;;2.00;0.93;;;;;;;22.35;61.67;100859.63;6264481;28;20041;-72
2023/06/30 13:35:54;;;;;;;1.23;0.60;;;;;;;22.18;58.57;100855.13;6274889;28;20053;-79
2023/06/30 13:38:56;;;;;;;0.77;0.60;;;;;;;22.08;60.65;100854.34;6274999;28;20322;-72
2023/06/30 13:42:01;;;;;;;1.08;0.80;;;;;;;21.92;60.69;100863.91;6250752;28;20041;-71
2023/06/30 13:45:03;;;;;;;1.48;0.70;;;;;;;21.74;61.00;100863.88;6250212;28;20061;-71
2023/06/30 13:48:06;;;;;;;1.00;0.90;;;;;;;21.51;61.67;100858.13;6256534;28;20053;-72
2023/06/30 13:51:08;;;;;;;0.68;0.60;;;;;;;21.70;61.22;100853.63;6256963;28;20326;-71
2023/06/30 13:54:09;;;;;;;1.13;0.70;;;;;;;21.73;61.68;100856.03;6262877;28;20053;-71
2023/06/30 13:57:12;;;;;;;1.88;0.82;;;;;;;22.03;62.94;100847.63;6266651;28;20064;-71